Οι άλλοι ιστότοποί μου:

PWS_Dashboardsykiaweather.alinos.eu/pwsWD/

SYKIA METEOTEMPLATEsykiameteo.alinos.eu

alinos.eualinos.eu



Αναφορές γειτονικών METAR

   
LGEL - Elefsis (hel-Afb, Greece
Απόσταση από τον σταθμό: Α 77 km
Ενημερώθηκε: 20-05-2022 09:20
Μερικώς νεφελώδης  
Μερικώς νεφελώδης  
   Ανεμος: Βόρια 18.5 km/h<br />Gust to 18.5 km/h
Ανεμος: Βόρια 18.5 km/h
Gust to 18.5 km/h
Θερμοκρασία: 20°C
Σημείο Δρόσου: 7°C
Υγρασία: 43%
Βαρόμετρο: 1024 hPa
Νεφώσεις: Μερικώς νεφελώδης
Ορατότητα: More than 10 km
Στοιχεία νεφών: Μερικώς νεφελώδης 2000 ft
LGEL 200620Z 36010G20KT 9999 SCT020 20/07 Q1024
LGRX - Araxos (civ/Afb), Greece
Απόσταση από τον σταθμό: Δ 110 km
Ενημερώθηκε: 20-05-2022 08:50
Αίθριος  
Αίθριος  
   Ανεμος: μεταβλητός 5.6 km/h
Ανεμος: μεταβλητός 5.6 km/h
Θερμοκρασία: 19°C
Σημείο Δρόσου: 7°C
Υγρασία: 46%
Βαρόμετρο: 1025 hPa
Ορατότητα: More than 10 km
Στοιχεία νεφών: Αίθριος
LGRX 200550Z VRB03KT CAVOK 19/07 Q1025
LGAV - Athens/Elef-Ven, Greece
Απόσταση από τον σταθμό: Α 113 km
Ενημερώθηκε: 20-05-2022 09:20
Διάσπαρτα νέφη  
Διάσπαρτα νέφη  
   Ανεμος: Βόρια 31.5 km/h
Ανεμος: Βόρια 31.5 km/h
Θερμοκρασία: 19°C
Σημείο Δρόσου: 6°C
Υγρασία: 43%
Βαρόμετρο: 1024 hPa
Νεφώσεις: Διάσπαρτα νέφη
Ορατότητα: More than 10 km
Στοιχεία νεφών: Διάσπαρτα νέφη 3000 ft
LGAV 200620Z 36017KT 330V030 9999 FEW030 19/06 Q1024 NOSIG
LGAD - Andravida (civ/A, Greece
Απόσταση από τον σταθμό: Δ 124 km
Ενημερώθηκε: 20-05-2022 09:20
Αίθριος  
Αίθριος  
   Ανεμος: Βόρια 18.5 km/h
Ανεμος: Βόρια 18.5 km/h
Θερμοκρασία: 19°C
Σημείο Δρόσου: 9°C
Υγρασία: 52%
Βαρόμετρο: 1024 hPa
Ορατότητα: More than 10 km
Στοιχεία νεφών: Αίθριος
LGAD 200620Z 35010KT CAVOK 19/09 Q1024
LGKL - Kalamata (hel-Af, Greece
Απόσταση από τον σταθμό: ΝΝΔ 124 km
Ενημερώθηκε: 20-05-2022 09:20
Διάσπαρτα νέφη  
Διάσπαρτα νέφη  
   Ανεμος: ΒΒΑ 16.7 km/h<br />Gust to 16.7 km/h
Ανεμος: ΒΒΑ 16.7 km/h
Gust to 16.7 km/h
Θερμοκρασία: 22°C
Σημείο Δρόσου: 5°C
Υγρασία: 33%
Βαρόμετρο: 1023 hPa
Νεφώσεις: Διάσπαρτα νέφη
Ορατότητα: More than 10 km
Στοιχεία νεφών: Διάσπαρτα νέφη 2500 ft
LGKL 200620Z 02009G19KT 9999 FEW025 22/05 Q1023
LGBL - Nea Anchialos, Greece
Απόσταση από τον σταθμό: Β 129 km
Ενημερώθηκε: 20-05-2022 09:20
Αίθριος  
Αίθριος  
   Ανεμος: ΒΔ 11.1 km/h
Ανεμος: ΒΔ 11.1 km/h
Θερμοκρασία: 19°C
Σημείο Δρόσου: 6°C
Υγρασία: 43%
Βαρόμετρο: 1026 hPa
Ορατότητα: More than 10 km
Στοιχεία νεφών: Αίθριος
LGBL 200620Z 32006KT CAVOK 19/06 Q1026

Αρχική γραφή από  Saratoga-weather.org Προσαρμογή στον ιστότοπο από  Weerstation Leuven

Βλέπε επίσης τις ενημερώσεις τού σταθμού μας στα παρακάτω δίκτυα:

European Weather Network

Weather Underground

AWEKAS

Citizen Weather Observer Program (CWOP)

UK Metoffice

Equipment we use:

Μετεωρολογικός σταθμός
Davis Wireless Vantage Pro2

Davis Wireless Vantage Pro2